sensor_id;sensor_type;location;lat;lon;timestamp;P1;durP1;ratioP1;P2;durP2;ratioP2
80199;SDS011;69520;44.900;-0.764;2024-01-07T00:00:02;5.97;;;1.20;;
80199;SDS011;69520;44.900;-0.764;2024-01-07T00:02:29;7.97;;;1.23;;
80199;SDS011;69520;44.900;-0.764;2024-01-07T00:04:56;4.95;;;1.13;;
80199;SDS011;69520;44.900;-0.764;2024-01-07T00:07:22;4.60;;;1.15;;
80199;SDS011;69520;44.900;-0.764;2024-01-07T00:09:48;6.13;;;1.20;;
80199;SDS011;69520;44.900;-0.764;2024-01-07T00:12:14;5.03;;;1.20;;
80199;SDS011;69520;44.900;-0.764;2024-01-07T00:14:41;5.00;;;0.95;;
80199;SDS011;69520;44.900;-0.764;2024-01-07T00:17:06;7.63;;;1.30;;
80199;SDS011;69520;44.900;-0.764;2024-01-07T00:19:33;6.25;;;1.33;;
80199;SDS011;69520;44.900;-0.764;2024-01-07T00:22:03;6.00;;;1.17;;
80199;SDS011;69520;44.900;-0.764;2024-01-07T00:24:29;6.30;;;1.47;;
80199;SDS011;69520;44.900;-0.764;2024-01-07T00:26:55;5.72;;;1.75;;
80199;SDS011;69520;44.900;-0.764;2024-01-07T00:29:21;8.85;;;1.70;;
80199;SDS011;69520;44.900;-0.764;2024-01-07T00:31:47;10.15;;;1.35;;
80199;SDS011;69520;44.900;-0.764;2024-01-07T00:34:16;6.55;;;1.15;;
80199;SDS011;69520;44.900;-0.764;2024-01-07T00:36:42;7.80;;;1.53;;
80199;SDS011;69520;44.900;-0.764;2024-01-07T00:39:08;5.85;;;1.30;;
80199;SDS011;69520;44.900;-0.764;2024-01-07T00:41:34;5.80;;;1.30;;
80199;SDS011;69520;44.900;-0.764;2024-01-07T00:44:00;7.57;;;1.30;;
80199;SDS011;69520;44.900;-0.764;2024-01-07T00:46:26;6.30;;;1.25;;
80199;SDS011;69520;44.900;-0.764;2024-01-07T00:48:52;5.90;;;1.20;;
80199;SDS011;69520;44.900;-0.764;2024-01-07T00:51:18;7.38;;;1.20;;
80199;SDS011;69520;44.900;-0.764;2024-01-07T00:53:44;8.98;;;1.50;;
80199;SDS011;69520;44.900;-0.764;2024-01-07T00:56:10;7.03;;;1.35;;
80199;SDS011;69520;44.900;-0.764;2024-01-07T00:58:36;6.60;;;1.52;;
80199;SDS011;69520;44.900;-0.764;2024-01-07T01:01:02;7.27;;;1.90;;
80199;SDS011;69520;44.900;-0.764;2024-01-07T01:03:29;8.80;;;1.65;;
80199;SDS011;69520;44.900;-0.764;2024-01-07T01:05:55;7.65;;;2.00;;
80199;SDS011;69520;44.900;-0.764;2024-01-07T01:08:21;8.52;;;1.60;;
80199;SDS011;69520;44.900;-0.764;2024-01-07T01:10:48;7.53;;;1.67;;
80199;SDS011;69520;44.900;-0.764;2024-01-07T01:13:14;5.30;;;1.03;;
80199;SDS011;69520;44.900;-0.764;2024-01-07T01:15:40;5.28;;;1.15;;
80199;SDS011;69520;44.900;-0.764;2024-01-07T01:18:06;6.13;;;1.55;;
80199;SDS011;69520;44.900;-0.764;2024-01-07T01:20:32;6.45;;;1.45;;
80199;SDS011;69520;44.900;-0.764;2024-01-07T01:22:58;6.63;;;1.27;;
80199;SDS011;69520;44.900;-0.764;2024-01-07T01:25:24;5.07;;;1.20;;
80199;SDS011;69520;44.900;-0.764;2024-01-07T01:27:51;7.45;;;1.60;;
80199;SDS011;69520;44.900;-0.764;2024-01-07T01:30:17;5.75;;;1.35;;
80199;SDS011;69520;44.900;-0.764;2024-01-07T01:32:43;7.28;;;1.30;;
80199;SDS011;69520;44.900;-0.764;2024-01-07T01:35:09;5.25;;;1.20;;
80199;SDS011;69520;44.900;-0.764;2024-01-07T01:37:35;6.50;;;1.20;;
80199;SDS011;69520;44.900;-0.764;2024-01-07T01:40:02;6.18;;;1.30;;
80199;SDS011;69520;44.900;-0.764;2024-01-07T01:42:28;4.47;;;0.93;;
80199;SDS011;69520;44.900;-0.764;2024-01-07T01:44:54;5.30;;;1.15;;
80199;SDS011;69520;44.900;-0.764;2024-01-07T01:47:24;6.10;;;1.38;;
80199;SDS011;69520;44.900;-0.764;2024-01-07T01:49:50;6.23;;;1.40;;
80199;SDS011;69520;44.900;-0.764;2024-01-07T01:52:17;6.57;;;1.50;;
80199;SDS011;69520;44.900;-0.764;2024-01-07T01:54:43;6.57;;;1.48;;
80199;SDS011;69520;44.900;-0.764;2024-01-07T01:57:11;6.43;;;1.30;;
80199;SDS011;69520;44.900;-0.764;2024-01-07T01:59:39;5.93;;;1.40;;
80199;SDS011;69520;44.900;-0.764;2024-01-07T02:02:05;5.77;;;1.20;;
80199;SDS011;69520;44.900;-0.764;2024-01-07T02:04:31;7.28;;;1.80;;
80199;SDS011;69520;44.900;-0.764;2024-01-07T02:06:57;8.07;;;1.98;;
80199;SDS011;69520;44.900;-0.764;2024-01-07T02:09:23;5.28;;;1.40;;
80199;SDS011;69520;44.900;-0.764;2024-01-07T02:14:28;6.90;;;1.90;;
80199;SDS011;69520;44.900;-0.764;2024-01-07T02:16:54;7.07;;;1.42;;
80199;SDS011;69520;44.900;-0.764;2024-01-07T02:19:20;7.30;;;1.85;;
80199;SDS011;69520;44.900;-0.764;2024-01-07T02:21:46;6.43;;;1.38;;
80199;SDS011;69520;44.900;-0.764;2024-01-07T02:24:18;6.82;;;1.90;;
80199;SDS011;69520;44.900;-0.764;2024-01-07T02:26:44;5.93;;;1.40;;
80199;SDS011;69520;44.900;-0.764;2024-01-07T02:29:10;7.03;;;1.60;;
80199;SDS011;69520;44.900;-0.764;2024-01-07T02:31:36;7.70;;;1.40;;
80199;SDS011;69520;44.900;-0.764;2024-01-07T02:34:02;6.45;;;1.55;;
80199;SDS011;69520;44.900;-0.764;2024-01-07T02:36:28;6.43;;;1.60;;
80199;SDS011;69520;44.900;-0.764;2024-01-07T02:38:54;5.60;;;1.40;;
80199;SDS011;69520;44.900;-0.764;2024-01-07T02:41:20;5.63;;;1.30;;
80199;SDS011;69520;44.900;-0.764;2024-01-07T02:43:50;6.68;;;1.75;;
80199;SDS011;69520;44.900;-0.764;2024-01-07T02:46:16;5.40;;;1.38;;
80199;SDS011;69520;44.900;-0.764;2024-01-07T02:48:42;11.98;;;1.83;;
80199;SDS011;69520;44.900;-0.764;2024-01-07T02:51:08;5.07;;;1.40;;
80199;SDS011;69520;44.900;-0.764;2024-01-07T02:53:34;6.97;;;1.58;;
80199;SDS011;69520;44.900;-0.764;2024-01-07T02:56:00;5.97;;;1.50;;
80199;SDS011;69520;44.900;-0.764;2024-01-07T02:58:26;7.15;;;1.42;;
80199;SDS011;69520;44.900;-0.764;2024-01-07T03:00:52;5.93;;;1.52;;
80199;SDS011;69520;44.900;-0.764;2024-01-07T03:03:18;7.47;;;1.70;;
80199;SDS011;69520;44.900;-0.764;2024-01-07T03:05:44;7.13;;;1.67;;
80199;SDS011;69520;44.900;-0.764;2024-01-07T03:08:10;6.53;;;1.48;;
80199;SDS011;69520;44.900;-0.764;2024-01-07T03:10:36;7.32;;;2.05;;
80199;SDS011;69520;44.900;-0.764;2024-01-07T03:13:03;7.15;;;1.90;;
80199;SDS011;69520;44.900;-0.764;2024-01-07T03:15:29;5.47;;;1.60;;
80199;SDS011;69520;44.900;-0.764;2024-01-07T03:17:56;6.18;;;1.73;;
80199;SDS011;69520;44.900;-0.764;2024-01-07T03:20:23;7.35;;;1.75;;
80199;SDS011;69520;44.900;-0.764;2024-01-07T03:22:49;6.32;;;1.67;;
80199;SDS011;69520;44.900;-0.764;2024-01-07T03:25:15;8.52;;;1.90;;
80199;SDS011;69520;44.900;-0.764;2024-01-07T03:27:41;7.50;;;1.60;;
80199;SDS011;69520;44.900;-0.764;2024-01-07T03:30:07;7.57;;;1.77;;
80199;SDS011;69520;44.900;-0.764;2024-01-07T03:32:34;7.55;;;1.77;;
80199;SDS011;69520;44.900;-0.764;2024-01-07T03:35:01;6.80;;;1.63;;
80199;SDS011;69520;44.900;-0.764;2024-01-07T03:37:27;7.72;;;2.03;;
80199;SDS011;69520;44.900;-0.764;2024-01-07T03:39:53;6.77;;;1.93;;
80199;SDS011;69520;44.900;-0.764;2024-01-07T03:42:19;5.85;;;1.58;;
80199;SDS011;69520;44.900;-0.764;2024-01-07T03:44:45;5.97;;;1.77;;
80199;SDS011;69520;44.900;-0.764;2024-01-07T03:47:11;7.35;;;1.55;;
80199;SDS011;69520;44.900;-0.764;2024-01-07T03:49:37;8.18;;;1.90;;
80199;SDS011;69520;44.900;-0.764;2024-01-07T03:52:06;7.17;;;1.37;;
80199;SDS011;69520;44.900;-0.764;2024-01-07T03:54:33;5.78;;;1.33;;
80199;SDS011;69520;44.900;-0.764;2024-01-07T03:56:59;5.93;;;1.40;;
80199;SDS011;69520;44.900;-0.764;2024-01-07T03:59:25;6.03;;;1.20;;
80199;SDS011;69520;44.900;-0.764;2024-01-07T04:01:55;8.02;;;1.95;;
80199;SDS011;69520;44.900;-0.764;2024-01-07T04:04:21;5.40;;;1.23;;
80199;SDS011;69520;44.900;-0.764;2024-01-07T04:06:47;7.03;;;1.70;;
80199;SDS011;69520;44.900;-0.764;2024-01-07T04:09:13;5.65;;;1.48;;
80199;SDS011;69520;44.900;-0.764;2024-01-07T04:11:40;6.13;;;1.40;;
80199;SDS011;69520;44.900;-0.764;2024-01-07T04:14:06;5.90;;;1.52;;
80199;SDS011;69520;44.900;-0.764;2024-01-07T04:16:32;7.17;;;1.70;;
80199;SDS011;69520;44.900;-0.764;2024-01-07T04:18:58;5.68;;;1.70;;
80199;SDS011;69520;44.900;-0.764;2024-01-07T04:21:25;6.63;;;1.75;;
80199;SDS011;69520;44.900;-0.764;2024-01-07T04:23:51;7.05;;;1.70;;
80199;SDS011;69520;44.900;-0.764;2024-01-07T04:26:17;6.80;;;1.85;;
80199;SDS011;69520;44.900;-0.764;2024-01-07T04:28:43;6.50;;;1.50;;
80199;SDS011;69520;44.900;-0.764;2024-01-07T04:31:09;6.32;;;1.60;;
80199;SDS011;69520;44.900;-0.764;2024-01-07T04:33:35;7.15;;;1.52;;
80199;SDS011;69520;44.900;-0.764;2024-01-07T04:36:01;6.95;;;1.40;;
80199;SDS011;69520;44.900;-0.764;2024-01-07T04:38:29;7.45;;;2.00;;
80199;SDS011;69520;44.900;-0.764;2024-01-07T04:40:55;7.20;;;1.93;;
80199;SDS011;69520;44.900;-0.764;2024-01-07T04:43:21;8.82;;;2.45;;
80199;SDS011;69520;44.900;-0.764;2024-01-07T04:45:47;7.28;;;2.30;;
80199;SDS011;69520;44.900;-0.764;2024-01-07T04:48:13;10.05;;;2.28;;
80199;SDS011;69520;44.900;-0.764;2024-01-07T04:50:42;10.68;;;2.88;;
80199;SDS011;69520;44.900;-0.764;2024-01-07T04:53:08;12.50;;;3.17;;
80199;SDS011;69520;44.900;-0.764;2024-01-07T04:55:35;9.15;;;2.72;;
80199;SDS011;69520;44.900;-0.764;2024-01-07T04:58:02;10.82;;;3.15;;
80199;SDS011;69520;44.900;-0.764;2024-01-07T05:00:29;9.10;;;2.60;;
80199;SDS011;69520;44.900;-0.764;2024-01-07T05:02:55;8.00;;;2.58;;
80199;SDS011;69520;44.900;-0.764;2024-01-07T05:05:21;7.77;;;2.50;;
80199;SDS011;69520;44.900;-0.764;2024-01-07T05:07:47;7.85;;;2.45;;
80199;SDS011;69520;44.900;-0.764;2024-01-07T05:10:13;6.85;;;2.05;;
80199;SDS011;69520;44.900;-0.764;2024-01-07T05:12:39;7.60;;;2.20;;
80199;SDS011;69520;44.900;-0.764;2024-01-07T05:15:06;10.52;;;2.67;;
80199;SDS011;69520;44.900;-0.764;2024-01-07T05:17:32;7.87;;;2.13;;
80199;SDS011;69520;44.900;-0.764;2024-01-07T05:19:58;6.18;;;1.73;;
80199;SDS011;69520;44.900;-0.764;2024-01-07T05:22:24;7.78;;;2.15;;
80199;SDS011;69520;44.900;-0.764;2024-01-07T05:24:50;8.30;;;2.22;;
80199;SDS011;69520;44.900;-0.764;2024-01-07T05:27:16;7.28;;;2.25;;
80199;SDS011;69520;44.900;-0.764;2024-01-07T05:29:45;11.03;;;3.20;;
80199;SDS011;69520;44.900;-0.764;2024-01-07T05:32:12;11.40;;;3.72;;
80199;SDS011;69520;44.900;-0.764;2024-01-07T05:34:38;12.48;;;3.88;;
80199;SDS011;69520;44.900;-0.764;2024-01-07T05:37:04;12.93;;;3.90;;
80199;SDS011;69520;44.900;-0.764;2024-01-07T05:39:30;13.90;;;4.43;;
80199;SDS011;69520;44.900;-0.764;2024-01-07T05:41:56;10.03;;;3.07;;
80199;SDS011;69520;44.900;-0.764;2024-01-07T05:44:22;7.70;;;2.80;;
80199;SDS011;69520;44.900;-0.764;2024-01-07T05:46:48;8.57;;;2.25;;
80199;SDS011;69520;44.900;-0.764;2024-01-07T05:49:14;7.57;;;1.80;;
80199;SDS011;69520;44.900;-0.764;2024-01-07T05:51:40;7.90;;;1.98;;
80199;SDS011;69520;44.900;-0.764;2024-01-07T05:54:07;5.73;;;1.70;;
80199;SDS011;69520;44.900;-0.764;2024-01-07T05:56:37;5.40;;;1.30;;
80199;SDS011;69520;44.900;-0.764;2024-01-07T05:59:04;6.25;;;1.40;;
80199;SDS011;69520;44.900;-0.764;2024-01-07T06:01:30;7.65;;;1.38;;
80199;SDS011;69520;44.900;-0.764;2024-01-07T06:03:56;7.68;;;1.80;;
80199;SDS011;69520;44.900;-0.764;2024-01-07T06:06:22;6.70;;;1.50;;
80199;SDS011;69520;44.900;-0.764;2024-01-07T06:08:48;6.15;;;1.25;;
80199;SDS011;69520;44.900;-0.764;2024-01-07T06:11:14;6.68;;;1.48;;
80199;SDS011;69520;44.900;-0.764;2024-01-07T06:13:45;5.38;;;1.30;;
80199;SDS011;69520;44.900;-0.764;2024-01-07T06:16:11;5.00;;;1.10;;
80199;SDS011;69520;44.900;-0.764;2024-01-07T06:18:37;6.23;;;1.30;;
80199;SDS011;69520;44.900;-0.764;2024-01-07T06:21:03;7.78;;;1.63;;
80199;SDS011;69520;44.900;-0.764;2024-01-07T06:23:29;5.70;;;1.25;;
80199;SDS011;69520;44.900;-0.764;2024-01-07T06:25:55;7.97;;;1.17;;
80199;SDS011;69520;44.900;-0.764;2024-01-07T06:28:21;5.57;;;1.30;;
80199;SDS011;69520;44.900;-0.764;2024-01-07T06:30:47;6.87;;;1.40;;
80199;SDS011;69520;44.900;-0.764;2024-01-07T06:33:13;4.93;;;1.13;;
80199;SDS011;69520;44.900;-0.764;2024-01-07T06:35:40;6.65;;;1.42;;
80199;SDS011;69520;44.900;-0.764;2024-01-07T06:38:06;6.47;;;1.20;;
80199;SDS011;69520;44.900;-0.764;2024-01-07T06:40:32;6.90;;;1.27;;
80199;SDS011;69520;44.900;-0.764;2024-01-07T06:42:58;4.77;;;1.00;;
80199;SDS011;69520;44.900;-0.764;2024-01-07T06:45:24;6.35;;;1.05;;
80199;SDS011;69520;44.900;-0.764;2024-01-07T06:47:50;4.65;;;1.20;;
80199;SDS011;69520;44.900;-0.764;2024-01-07T06:50:16;5.72;;;1.20;;
80199;SDS011;69520;44.900;-0.764;2024-01-07T06:52:42;7.32;;;1.45;;
80199;SDS011;69520;44.900;-0.764;2024-01-07T06:55:08;5.97;;;1.33;;
80199;SDS011;69520;44.900;-0.764;2024-01-07T06:57:34;7.10;;;1.52;;
80199;SDS011;69520;44.900;-0.764;2024-01-07T07:00:01;6.80;;;1.60;;
80199;SDS011;69520;44.900;-0.764;2024-01-07T07:02:27;6.78;;;1.20;;
80199;SDS011;69520;44.900;-0.764;2024-01-07T07:04:54;6.15;;;1.50;;
80199;SDS011;69520;44.900;-0.764;2024-01-07T07:07:20;5.77;;;1.40;;
80199;SDS011;69520;44.900;-0.764;2024-01-07T07:09:46;5.18;;;1.20;;
80199;SDS011;69520;44.900;-0.764;2024-01-07T07:12:12;7.65;;;1.38;;
80199;SDS011;69520;44.900;-0.764;2024-01-07T07:14:38;5.90;;;1.40;;
80199;SDS011;69520;44.900;-0.764;2024-01-07T07:17:04;7.38;;;1.58;;
80199;SDS011;69520;44.900;-0.764;2024-01-07T07:19:30;5.87;;;1.20;;
80199;SDS011;69520;44.900;-0.764;2024-01-07T07:21:56;6.85;;;1.60;;
80199;SDS011;69520;44.900;-0.764;2024-01-07T07:24:22;7.45;;;1.75;;
80199;SDS011;69520;44.900;-0.764;2024-01-07T07:26:48;6.75;;;1.90;;
80199;SDS011;69520;44.900;-0.764;2024-01-07T07:29:14;6.72;;;1.80;;
80199;SDS011;69520;44.900;-0.764;2024-01-07T07:31:40;8.43;;;1.83;;
80199;SDS011;69520;44.900;-0.764;2024-01-07T07:34:08;7.72;;;2.05;;
80199;SDS011;69520;44.900;-0.764;2024-01-07T07:36:36;6.55;;;1.95;;
80199;SDS011;69520;44.900;-0.764;2024-01-07T07:39:02;7.57;;;2.10;;
80199;SDS011;69520;44.900;-0.764;2024-01-07T07:41:28;8.00;;;1.90;;
80199;SDS011;69520;44.900;-0.764;2024-01-07T07:43:54;7.57;;;2.00;;
80199;SDS011;69520;44.900;-0.764;2024-01-07T07:46:20;7.32;;;2.00;;
80199;SDS011;69520;44.900;-0.764;2024-01-07T07:48:46;7.32;;;2.03;;
80199;SDS011;69520;44.900;-0.764;2024-01-07T07:51:12;8.63;;;2.30;;
80199;SDS011;69520;44.900;-0.764;2024-01-07T07:53:38;8.45;;;2.33;;
80199;SDS011;69520;44.900;-0.764;2024-01-07T07:56:08;8.73;;;2.40;;
80199;SDS011;69520;44.900;-0.764;2024-01-07T07:58:34;8.30;;;2.40;;
80199;SDS011;69520;44.900;-0.764;2024-01-07T08:01:00;9.57;;;2.70;;
80199;SDS011;69520;44.900;-0.764;2024-01-07T08:03:27;9.98;;;2.88;;
80199;SDS011;69520;44.900;-0.764;2024-01-07T08:05:53;9.70;;;2.95;;
80199;SDS011;69520;44.900;-0.764;2024-01-07T08:08:19;9.70;;;2.93;;
80199;SDS011;69520;44.900;-0.764;2024-01-07T08:10:45;9.02;;;3.13;;
80199;SDS011;69520;44.900;-0.764;2024-01-07T08:13:11;10.40;;;3.35;;
80199;SDS011;69520;44.900;-0.764;2024-01-07T08:15:37;9.20;;;2.97;;
80199;SDS011;69520;44.900;-0.764;2024-01-07T08:18:03;11.07;;;3.58;;
80199;SDS011;69520;44.900;-0.764;2024-01-07T08:20:30;10.20;;;3.27;;
80199;SDS011;69520;44.900;-0.764;2024-01-07T08:22:56;13.85;;;3.50;;
80199;SDS011;69520;44.900;-0.764;2024-01-07T08:25:22;9.88;;;3.20;;
80199;SDS011;69520;44.900;-0.764;2024-01-07T08:27:48;9.88;;;3.00;;
80199;SDS011;69520;44.900;-0.764;2024-01-07T08:30:15;12.38;;;3.70;;
80199;SDS011;69520;44.900;-0.764;2024-01-07T08:32:42;12.20;;;4.40;;
80199;SDS011;69520;44.900;-0.764;2024-01-07T08:35:08;16.98;;;4.18;;
80199;SDS011;69520;44.900;-0.764;2024-01-07T08:37:34;14.98;;;4.28;;
80199;SDS011;69520;44.900;-0.764;2024-01-07T08:40:00;9.77;;;3.25;;
80199;SDS011;69520;44.900;-0.764;2024-01-07T08:42:27;9.63;;;2.85;;
80199;SDS011;69520;44.900;-0.764;2024-01-07T08:44:55;9.70;;;2.37;;
80199;SDS011;69520;44.900;-0.764;2024-01-07T08:47:21;8.70;;;2.70;;
80199;SDS011;69520;44.900;-0.764;2024-01-07T08:49:47;10.73;;;2.78;;
80199;SDS011;69520;44.900;-0.764;2024-01-07T08:52:13;7.93;;;2.40;;
80199;SDS011;69520;44.900;-0.764;2024-01-07T08:54:39;9.25;;;3.17;;
80199;SDS011;69520;44.900;-0.764;2024-01-07T08:57:05;9.53;;;2.70;;
80199;SDS011;69520;44.900;-0.764;2024-01-07T08:59:31;10.50;;;2.42;;
80199;SDS011;69520;44.900;-0.764;2024-01-07T09:01:57;9.35;;;2.47;;
80199;SDS011;69520;44.900;-0.764;2024-01-07T09:04:23;9.95;;;2.50;;
80199;SDS011;69520;44.900;-0.764;2024-01-07T09:06:49;9.57;;;2.40;;
80199;SDS011;69520;44.900;-0.764;2024-01-07T09:09:15;8.67;;;1.87;;
80199;SDS011;69520;44.900;-0.764;2024-01-07T09:11:41;6.00;;;1.92;;
80199;SDS011;69520;44.900;-0.764;2024-01-07T09:14:07;7.25;;;2.28;;
80199;SDS011;69520;44.900;-0.764;2024-01-07T09:16:33;7.07;;;2.10;;
80199;SDS011;69520;44.900;-0.764;2024-01-07T09:18:59;8.63;;;2.63;;
80199;SDS011;69520;44.900;-0.764;2024-01-07T09:21:25;9.60;;;2.37;;
80199;SDS011;69520;44.900;-0.764;2024-01-07T09:23:51;7.70;;;2.10;;
80199;SDS011;69520;44.900;-0.764;2024-01-07T09:26:17;8.18;;;2.25;;
80199;SDS011;69520;44.900;-0.764;2024-01-07T09:28:43;7.28;;;2.15;;
80199;SDS011;69520;44.900;-0.764;2024-01-07T09:31:09;8.20;;;2.22;;
80199;SDS011;69520;44.900;-0.764;2024-01-07T09:33:36;8.23;;;2.37;;
80199;SDS011;69520;44.900;-0.764;2024-01-07T09:36:02;9.05;;;2.40;;
80199;SDS011;69520;44.900;-0.764;2024-01-07T09:38:28;8.73;;;2.70;;
80199;SDS011;69520;44.900;-0.764;2024-01-07T09:40:54;7.50;;;2.22;;
80199;SDS011;69520;44.900;-0.764;2024-01-07T09:43:20;8.60;;;2.10;;
80199;SDS011;69520;44.900;-0.764;2024-01-07T09:45:46;9.03;;;2.60;;
80199;SDS011;69520;44.900;-0.764;2024-01-07T09:48:13;9.40;;;2.40;;
80199;SDS011;69520;44.900;-0.764;2024-01-07T09:50:39;7.97;;;2.50;;
80199;SDS011;69520;44.900;-0.764;2024-01-07T09:53:05;17.13;;;2.70;;
80199;SDS011;69520;44.900;-0.764;2024-01-07T09:55:33;7.72;;;2.42;;
80199;SDS011;69520;44.900;-0.764;2024-01-07T09:57:59;8.50;;;2.00;;
80199;SDS011;69520;44.900;-0.764;2024-01-07T10:00:26;7.90;;;2.25;;
80199;SDS011;69520;44.900;-0.764;2024-01-07T10:02:53;8.50;;;2.38;;
80199;SDS011;69520;44.900;-0.764;2024-01-07T10:05:20;7.93;;;2.15;;
80199;SDS011;69520;44.900;-0.764;2024-01-07T10:07:46;7.97;;;2.10;;
80199;SDS011;69520;44.900;-0.764;2024-01-07T10:10:15;10.80;;;2.37;;
80199;SDS011;69520;44.900;-0.764;2024-01-07T10:12:45;9.05;;;2.65;;
80199;SDS011;69520;44.900;-0.764;2024-01-07T10:15:11;8.32;;;2.40;;
80199;SDS011;69520;44.900;-0.764;2024-01-07T10:17:37;9.20;;;2.42;;
80199;SDS011;69520;44.900;-0.764;2024-01-07T10:20:05;8.15;;;2.30;;
80199;SDS011;69520;44.900;-0.764;2024-01-07T10:22:34;13.60;;;2.63;;
80199;SDS011;69520;44.900;-0.764;2024-01-07T10:25:01;10.52;;;2.42;;
80199;SDS011;69520;44.900;-0.764;2024-01-07T10:27:27;8.70;;;2.25;;
80199;SDS011;69520;44.900;-0.764;2024-01-07T10:29:53;7.05;;;2.45;;
80199;SDS011;69520;44.900;-0.764;2024-01-07T10:32:20;7.30;;;2.35;;
80199;SDS011;69520;44.900;-0.764;2024-01-07T10:34:46;7.63;;;2.20;;
80199;SDS011;69520;44.900;-0.764;2024-01-07T10:37:12;9.75;;;2.50;;
80199;SDS011;69520;44.900;-0.764;2024-01-07T10:39:38;8.73;;;2.60;;
80199;SDS011;69520;44.900;-0.764;2024-01-07T10:42:04;11.07;;;2.53;;
80199;SDS011;69520;44.900;-0.764;2024-01-07T10:44:31;7.20;;;2.30;;
80199;SDS011;69520;44.900;-0.764;2024-01-07T10:46:58;6.43;;;2.00;;
80199;SDS011;69520;44.900;-0.764;2024-01-07T10:49:24;8.82;;;2.10;;
80199;SDS011;69520;44.900;-0.764;2024-01-07T10:54:20;8.25;;;2.17;;
80199;SDS011;69520;44.900;-0.764;2024-01-07T10:56:48;7.13;;;1.92;;
80199;SDS011;69520;44.900;-0.764;2024-01-07T10:59:16;9.43;;;2.30;;
80199;SDS011;69520;44.900;-0.764;2024-01-07T11:01:42;6.97;;;1.98;;
80199;SDS011;69520;44.900;-0.764;2024-01-07T11:04:10;7.75;;;2.20;;
80199;SDS011;69520;44.900;-0.764;2024-01-07T11:11:38;6.80;;;1.57;;
80199;SDS011;69520;44.900;-0.764;2024-01-07T11:16:52;6.07;;;1.40;;
80199;SDS011;69520;44.900;-0.764;2024-01-07T11:19:19;5.90;;;1.20;;
80199;SDS011;69520;44.900;-0.764;2024-01-07T11:21:46;5.57;;;1.70;;
80199;SDS011;69520;44.900;-0.764;2024-01-07T11:24:57;6.00;;;1.30;;
80199;SDS011;69520;44.900;-0.764;2024-01-07T11:27:01;6.55;;;1.35;;
80199;SDS011;69520;44.900;-0.764;2024-01-07T11:29:27;6.38;;;1.55;;
80199;SDS011;69520;44.900;-0.764;2024-01-07T11:31:53;5.40;;;1.27;;
80199;SDS011;69520;44.900;-0.764;2024-01-07T11:34:38;6.65;;;1.20;;
80199;SDS011;69520;44.900;-0.764;2024-01-07T11:37:14;5.93;;;1.40;;
80199;SDS011;69520;44.900;-0.764;2024-01-07T11:39:44;4.32;;;1.10;;
80199;SDS011;69520;44.900;-0.764;2024-01-07T11:42:10;7.07;;;1.15;;
80199;SDS011;69520;44.900;-0.764;2024-01-07T11:44:37;9.02;;;1.40;;
80199;SDS011;69520;44.900;-0.764;2024-01-07T11:47:06;5.13;;;1.20;;
80199;SDS011;69520;44.900;-0.764;2024-01-07T11:49:32;5.77;;;1.20;;
80199;SDS011;69520;44.900;-0.764;2024-01-07T11:51:58;4.30;;;1.08;;
80199;SDS011;69520;44.900;-0.764;2024-01-07T11:54:25;5.20;;;1.20;;
80199;SDS011;69520;44.900;-0.764;2024-01-07T11:56:52;6.13;;;1.13;;
80199;SDS011;69520;44.900;-0.764;2024-01-07T11:59:18;6.03;;;1.17;;
80199;SDS011;69520;44.900;-0.764;2024-01-07T12:01:44;5.40;;;1.23;;
80199;SDS011;69520;44.900;-0.764;2024-01-07T12:04:10;4.32;;;1.00;;
80199;SDS011;69520;44.900;-0.764;2024-01-07T12:06:37;5.22;;;1.10;;
80199;SDS011;69520;44.900;-0.764;2024-01-07T12:09:04;4.53;;;0.90;;
80199;SDS011;69520;44.900;-0.764;2024-01-07T12:11:30;4.15;;;0.93;;
80199;SDS011;69520;44.900;-0.764;2024-01-07T12:13:57;6.30;;;1.30;;
80199;SDS011;69520;44.900;-0.764;2024-01-07T12:16:23;5.53;;;1.10;;
80199;SDS011;69520;44.900;-0.764;2024-01-07T12:18:50;5.43;;;0.95;;
80199;SDS011;69520;44.900;-0.764;2024-01-07T12:21:19;4.57;;;1.00;;
80199;SDS011;69520;44.900;-0.764;2024-01-07T12:23:47;4.88;;;0.90;;
80199;SDS011;69520;44.900;-0.764;2024-01-07T12:26:15;5.03;;;0.80;;
80199;SDS011;69520;44.900;-0.764;2024-01-07T12:28:41;4.97;;;0.73;;
80199;SDS011;69520;44.900;-0.764;2024-01-07T12:31:07;4.25;;;1.10;;
80199;SDS011;69520;44.900;-0.764;2024-01-07T12:33:33;4.40;;;0.95;;
80199;SDS011;69520;44.900;-0.764;2024-01-07T12:36:00;4.93;;;1.00;;
80199;SDS011;69520;44.900;-0.764;2024-01-07T12:38:26;4.43;;;0.93;;
80199;SDS011;69520;44.900;-0.764;2024-01-07T12:40:53;4.65;;;1.00;;
80199;SDS011;69520;44.900;-0.764;2024-01-07T12:43:19;5.00;;;1.17;;
80199;SDS011;69520;44.900;-0.764;2024-01-07T12:45:45;4.90;;;0.95;;
80199;SDS011;69520;44.900;-0.764;2024-01-07T12:48:11;3.65;;;0.85;;
80199;SDS011;69520;44.900;-0.764;2024-01-07T12:50:37;4.13;;;0.80;;
80199;SDS011;69520;44.900;-0.764;2024-01-07T12:53:03;4.03;;;0.80;;
80199;SDS011;69520;44.900;-0.764;2024-01-07T12:55:30;4.43;;;0.68;;
80199;SDS011;69520;44.900;-0.764;2024-01-07T12:57:56;4.40;;;0.77;;
80199;SDS011;69520;44.900;-0.764;2024-01-07T13:00:23;4.10;;;0.63;;
80199;SDS011;69520;44.900;-0.764;2024-01-07T13:02:50;4.47;;;0.53;;
80199;SDS011;69520;44.900;-0.764;2024-01-07T13:05:16;3.58;;;0.70;;
80199;SDS011;69520;44.900;-0.764;2024-01-07T13:07:43;3.40;;;0.73;;
80199;SDS011;69520;44.900;-0.764;2024-01-07T13:10:09;3.42;;;0.70;;
80199;SDS011;69520;44.900;-0.764;2024-01-07T13:12:35;4.18;;;0.95;;
80199;SDS011;69520;44.900;-0.764;2024-01-07T13:15:02;4.50;;;0.80;;
80199;SDS011;69520;44.900;-0.764;2024-01-07T13:17:28;3.63;;;0.70;;
80199;SDS011;69520;44.900;-0.764;2024-01-07T13:19:55;4.78;;;0.80;;
80199;SDS011;69520;44.900;-0.764;2024-01-07T13:22:21;4.13;;;0.80;;
80199;SDS011;69520;44.900;-0.764;2024-01-07T13:24:47;3.70;;;0.80;;
80199;SDS011;69520;44.900;-0.764;2024-01-07T13:27:14;5.00;;;0.90;;
80199;SDS011;69520;44.900;-0.764;2024-01-07T13:29:42;3.50;;;0.75;;
80199;SDS011;69520;44.900;-0.764;2024-01-07T13:32:12;4.78;;;0.70;;
80199;SDS011;69520;44.900;-0.764;2024-01-07T13:34:42;5.25;;;0.70;;
80199;SDS011;69520;44.900;-0.764;2024-01-07T13:37:08;5.28;;;1.40;;
80199;SDS011;69520;44.900;-0.764;2024-01-07T13:39:35;4.20;;;0.80;;
80199;SDS011;69520;44.900;-0.764;2024-01-07T13:42:01;4.38;;;0.80;;
80199;SDS011;69520;44.900;-0.764;2024-01-07T13:44:27;4.28;;;0.80;;
80199;SDS011;69520;44.900;-0.764;2024-01-07T13:46:53;4.65;;;0.80;;
80199;SDS011;69520;44.900;-0.764;2024-01-07T13:49:19;4.53;;;1.00;;
80199;SDS011;69520;44.900;-0.764;2024-01-07T13:51:45;5.57;;;1.40;;
80199;SDS011;69520;44.900;-0.764;2024-01-07T13:54:11;6.25;;;1.40;;
80199;SDS011;69520;44.900;-0.764;2024-01-07T13:56:40;5.13;;;1.45;;
80199;SDS011;69520;44.900;-0.764;2024-01-07T13:59:10;6.80;;;1.73;;
80199;SDS011;69520;44.900;-0.764;2024-01-07T14:01:36;5.85;;;1.50;;
80199;SDS011;69520;44.900;-0.764;2024-01-07T14:04:02;6.40;;;1.40;;
80199;SDS011;69520;44.900;-0.764;2024-01-07T14:06:29;5.78;;;1.48;;
80199;SDS011;69520;44.900;-0.764;2024-01-07T14:08:55;6.03;;;1.08;;
80199;SDS011;69520;44.900;-0.764;2024-01-07T14:11:22;5.88;;;1.40;;
80199;SDS011;69520;44.900;-0.764;2024-01-07T14:13:48;5.45;;;1.65;;
80199;SDS011;69520;44.900;-0.764;2024-01-07T14:16:14;6.20;;;1.60;;
80199;SDS011;69520;44.900;-0.764;2024-01-07T14:18:40;6.95;;;1.55;;
80199;SDS011;69520;44.900;-0.764;2024-01-07T14:21:06;6.45;;;1.60;;
80199;SDS011;69520;44.900;-0.764;2024-01-07T14:23:33;4.97;;;1.20;;
80199;SDS011;69520;44.900;-0.764;2024-01-07T14:25:59;6.57;;;1.20;;
80199;SDS011;69520;44.900;-0.764;2024-01-07T14:28:26;5.40;;;1.30;;
80199;SDS011;69520;44.900;-0.764;2024-01-07T14:30:52;5.63;;;1.20;;
80199;SDS011;69520;44.900;-0.764;2024-01-07T14:33:18;7.00;;;1.63;;
80199;SDS011;69520;44.900;-0.764;2024-01-07T14:35:44;6.80;;;1.25;;
80199;SDS011;69520;44.900;-0.764;2024-01-07T14:38:10;5.57;;;1.60;;
80199;SDS011;69520;44.900;-0.764;2024-01-07T14:40:36;6.53;;;1.43;;